createdAt,value
2018-01-02T00:00:29.261Z,3.99
2018-01-02T00:01:29.322Z,4.02
2018-01-02T00:02:29.225Z,4.02
2018-01-02T00:03:29.010Z,4.03
2018-01-02T00:04:29.794Z,4.09
2018-01-02T00:05:29.805Z,4.02
2018-01-02T00:06:29.717Z,4.07
2018-01-02T00:07:29.678Z,4.05
2018-01-02T00:08:29.635Z,3.99
2018-01-02T00:09:29.663Z,3.96
2018-01-02T00:10:29.672Z,3.96
2018-01-02T00:11:29.758Z,4.01
2018-01-02T00:12:29.765Z,3.98
2018-01-02T00:13:29.888Z,3.94
2018-01-02T00:14:29.783Z,3.95
2018-01-02T00:15:29.725Z,3.99
2018-01-02T00:16:29.678Z,4.01
2018-01-02T00:17:29.824Z,3.96
2018-01-02T00:18:29.754Z,3.86
2018-01-02T00:19:29.506Z,3.84
2018-01-02T00:20:29.392Z,3.85
2018-01-02T00:21:29.581Z,3.85
2018-01-02T00:22:29.624Z,3.84
2018-01-02T00:23:29.647Z,3.83
2018-01-02T00:24:29.696Z,3.76
2018-01-02T00:25:28.765Z,3.76
2018-01-02T00:26:28.761Z,3.71
2018-01-02T00:27:28.832Z,3.7
2018-01-02T00:28:29.162Z,3.71
2018-01-02T00:29:29.303Z,3.58
2018-01-02T00:30:29.157Z,3.54
2018-01-02T00:31:29.051Z,3.51
2018-01-02T00:32:29.036Z,3.46
2018-01-02T00:33:29.147Z,3.43
2018-01-02T00:34:29.101Z,3.39
2018-01-02T00:35:29.155Z,3.4
2018-01-02T00:36:29.062Z,3.35
2018-01-02T00:37:29.081Z,3.36
2018-01-02T00:38:29.046Z,3.25
2018-01-02T00:39:29.241Z,3.3
2018-01-02T00:40:29.100Z,3.28
2018-01-02T00:41:29.105Z,3.29
2018-01-02T00:42:28.976Z,3.25
2018-01-02T00:43:28.881Z,3.07
2018-01-02T00:44:28.825Z,3.15
2018-01-02T00:45:28.906Z,3.02
2018-01-02T00:46:28.824Z,3.03
2018-01-02T00:47:28.752Z,3.08
2018-01-02T00:48:28.753Z,3.07
2018-01-02T00:49:29.226Z,3.18
2018-01-02T00:50:29.214Z,3.1
2018-01-02T00:51:29.260Z,3.15
2018-01-02T00:52:29.384Z,3.14
2018-01-02T00:53:29.532Z,3.14
2018-01-02T00:54:29.490Z,3.16
2018-01-02T00:55:28.445Z,3.15
2018-01-02T00:56:29.357Z,3.16
2018-01-02T00:57:29.514Z,3.2
2018-01-02T00:58:28.623Z,3.17
2018-01-02T00:59:28.600Z,3.2
2018-01-02T01:00:28.716Z,3.23
2018-01-02T01:01:28.603Z,3.27
2018-01-02T01:02:28.691Z,3.27
2018-01-02T01:03:28.733Z,3.28
2018-01-02T01:05:28.898Z,3.27
2018-01-02T01:06:28.989Z,3.27
2018-01-02T01:07:29.065Z,3.24
2018-01-02T01:08:29.302Z,3.25
2018-01-02T01:09:29.359Z,3.22
2018-01-02T01:10:29.434Z,3.17
2018-01-02T01:11:29.331Z,3.17
2018-01-02T01:12:29.451Z,3.15
2018-01-02T01:13:29.327Z,3.15
2018-01-02T01:14:29.146Z,3.19
2018-01-02T01:15:28.948Z,3.17
2018-01-02T01:16:28.957Z,3.13
2018-01-02T01:18:29.133Z,3.04
2018-01-02T01:19:29.035Z,3.04
2018-01-02T01:20:28.836Z,3.02
2018-01-02T01:21:28.724Z,3
2018-01-02T01:22:28.577Z,3.01
2018-01-02T01:23:28.576Z,3.01
2018-01-02T01:24:28.642Z,3
2018-01-02T01:25:28.740Z,2.92
2018-01-02T01:26:29.466Z,2.87
2018-01-02T01:27:29.486Z,2.86
2018-01-02T01:28:29.507Z,2.86
2018-01-02T01:29:29.502Z,2.85
2018-01-02T01:30:29.274Z,2.82
2018-01-02T01:31:29.327Z,2.76
2018-01-02T01:32:29.216Z,2.73
2018-01-02T01:33:29.278Z,2.72
2018-01-02T01:34:29.460Z,2.74
2018-01-02T01:35:29.574Z,2.71
2018-01-02T01:36:29.464Z,2.74
2018-01-02T01:37:29.490Z,2.73
2018-01-02T01:38:29.355Z,2.75
2018-01-02T01:39:29.454Z,2.67
2018-01-02T01:40:29.528Z,2.74
2018-01-02T01:41:29.522Z,2.63
2018-01-02T01:42:29.425Z,2.59
2018-01-02T01:43:29.457Z,2.58
2018-01-02T01:44:29.442Z,2.57
2018-01-02T01:45:29.668Z,2.62
2018-01-02T01:46:29.711Z,2.57
2018-01-02T01:47:29.795Z,2.6
2018-01-02T01:48:29.674Z,2.54
2018-01-02T01:49:29.661Z,2.58
2018-01-02T01:50:29.598Z,2.55
2018-01-02T01:51:29.617Z,2.6
2018-01-02T01:52:29.534Z,2.59
2018-01-02T01:53:29.438Z,2.55
2018-01-02T01:54:29.338Z,2.54
2018-01-02T01:55:29.418Z,2.55
2018-01-02T01:56:28.518Z,2.57
2018-01-02T01:57:28.496Z,2.52
2018-01-02T01:58:28.516Z,2.5
2018-01-02T01:59:28.424Z,2.51
2018-01-02T02:00:29.472Z,2.55
2018-01-02T02:01:28.433Z,2.54
2018-01-02T02:02:29.216Z,2.54
2018-01-02T02:03:29.097Z,2.54
2018-01-02T02:04:29.048Z,2.51
2018-01-02T02:05:29.060Z,2.55
2018-01-02T02:06:29.045Z,2.54
2018-01-02T02:07:29.064Z,2.55
2018-01-02T02:08:28.931Z,2.65
2018-01-02T02:09:29.088Z,2.64
2018-01-02T02:10:29.017Z,2.64
2018-01-02T02:11:29.156Z,2.61
2018-01-02T02:12:29.043Z,2.62
2018-01-02T02:13:29.070Z,2.64
2018-01-02T02:14:29.148Z,2.64
2018-01-02T02:15:29.256Z,2.67
2018-01-02T02:16:29.370Z,2.66
2018-01-02T02:17:28.877Z,2.66
2018-01-02T02:18:29.000Z,2.66
2018-01-02T02:19:29.052Z,2.69
2018-01-02T02:20:29.022Z,2.67
2018-01-02T02:21:29.261Z,2.75
2018-01-02T02:22:29.331Z,2.7
2018-01-02T02:23:29.465Z,2.71
2018-01-02T02:24:28.606Z,2.71
2018-01-02T02:25:28.542Z,2.71
2018-01-02T02:26:28.554Z,2.72
2018-01-02T02:27:29.436Z,2.74
2018-01-02T02:28:29.502Z,2.76
2018-01-02T02:29:29.521Z,2.74
2018-01-02T02:30:29.633Z,2.75
2018-01-02T02:31:28.875Z,2.7
2018-01-02T02:32:28.799Z,2.73
2018-01-02T02:33:28.943Z,2.77
2018-01-02T02:34:29.026Z,2.75
2018-01-02T02:35:29.022Z,2.76
2018-01-02T02:36:28.876Z,2.74
2018-01-02T02:37:28.875Z,2.78
2018-01-02T02:38:28.756Z,2.77
2018-01-02T02:39:28.967Z,2.78
2018-01-02T02:40:28.986Z,2.77
2018-01-02T02:41:28.922Z,2.79
2018-01-02T02:42:28.837Z,2.78
2018-01-02T02:43:28.880Z,2.76
2018-01-02T02:44:28.953Z,2.75
2018-01-02T02:45:29.020Z,2.73
2018-01-02T02:46:29.024Z,2.73
2018-01-02T02:47:29.046Z,2.74
2018-01-02T02:48:29.042Z,2.76
2018-01-02T02:49:29.061Z,2.7
2018-01-02T02:50:29.206Z,2.75
2018-01-02T02:51:29.300Z,2.76
2018-01-02T02:52:29.145Z,2.74
2018-01-02T02:53:29.125Z,2.79
2018-01-02T02:54:29.111Z,2.78
2018-01-02T02:55:29.176Z,2.74
2018-01-02T02:56:29.371Z,2.82
2018-01-02T02:57:29.440Z,2.75
2018-01-02T02:58:29.433Z,2.76
2018-01-02T02:59:29.371Z,2.8
2018-01-02T03:00:29.185Z,2.8
2018-01-02T03:01:29.099Z,2.82
2018-01-02T03:02:29.967Z,2.83
2018-01-02T03:03:29.997Z,2.79
2018-01-02T03:04:30.005Z,2.83
2018-01-02T03:05:30.009Z,2.8
2018-01-02T03:06:29.876Z,2.81
2018-01-02T03:07:29.859Z,2.83
2018-01-02T03:08:29.879Z,2.84
2018-01-02T03:09:29.905Z,2.85
2018-01-02T03:10:29.818Z,2.87
2018-01-02T03:11:29.838Z,2.84
2018-01-02T03:12:29.870Z,2.83
2018-01-02T03:13:29.856Z,2.83
2018-01-02T03:14:29.691Z,2.81
2018-01-02T03:15:29.536Z,2.86
2018-01-02T03:16:29.409Z,2.85
2018-01-02T03:17:29.531Z,2.85
2018-01-02T03:18:29.510Z,2.85
2018-01-02T03:19:29.626Z,2.9
2018-01-02T03:20:29.595Z,2.93
2018-01-02T03:21:29.662Z,2.92
2018-01-02T03:22:29.473Z,2.94
2018-01-02T03:23:29.433Z,2.92
2018-01-02T03:24:29.420Z,2.88
2018-01-02T03:25:29.689Z,2.85
2018-01-02T03:26:29.886Z,2.88
2018-01-02T03:27:28.884Z,2.89
2018-01-02T03:28:28.757Z,2.91
2018-01-02T03:29:28.783Z,2.89
2018-01-02T03:30:28.762Z,2.92
2018-01-02T03:31:28.815Z,2.9
2018-01-02T03:32:28.651Z,2.92
2018-01-02T03:33:28.638Z,2.9
2018-01-02T03:34:28.654Z,2.86
2018-01-02T03:35:28.727Z,2.89
2018-01-02T03:36:28.948Z,2.84
2018-01-02T03:37:28.936Z,2.84
2018-01-02T03:38:28.964Z,2.84
2018-01-02T03:39:28.994Z,2.85
2018-01-02T03:40:29.039Z,2.91
2018-01-02T03:41:29.046Z,2.9
2018-01-02T03:42:29.210Z,2.89
2018-01-02T03:43:29.100Z,2.97
2018-01-02T03:44:29.149Z,2.92
2018-01-02T03:45:29.187Z,2.97
2018-01-02T03:46:29.162Z,2.99
2018-01-02T03:47:29.271Z,3
2018-01-02T03:48:29.252Z,3.01
2018-01-02T03:49:29.212Z,3.04
2018-01-02T03:50:29.110Z,3.05
2018-01-02T03:51:29.184Z,3.03
2018-01-02T03:52:29.304Z,3.05
2018-01-02T03:53:29.366Z,3.06
2018-01-02T03:54:29.271Z,3.05
2018-01-02T03:55:29.727Z,3.04
2018-01-02T03:56:28.667Z,3.09
2018-01-02T03:57:29.527Z,3.04
2018-01-02T03:58:28.650Z,3.07
2018-01-02T03:59:28.549Z,3.03
2018-01-02T04:00:28.493Z,2.97
2018-01-02T04:01:29.378Z,3.01
2018-01-02T04:02:28.474Z,3.03
2018-01-02T04:03:29.253Z,3
2018-01-02T04:04:29.179Z,2.97
2018-01-02T04:05:29.194Z,2.97
2018-01-02T04:06:29.310Z,2.98
2018-01-02T04:07:29.160Z,3.02
2018-01-02T04:08:29.072Z,3.05
2018-01-02T04:09:28.881Z,3.05
2018-01-02T04:10:29.010Z,3.05
2018-01-02T04:11:28.924Z,3.05
2018-01-02T04:12:28.889Z,3.01
2018-01-02T04:13:29.103Z,3.05
2018-01-02T04:14:29.304Z,3.09
2018-01-02T04:15:29.339Z,3.06
2018-01-02T04:16:29.422Z,3.05
2018-01-02T04:17:29.449Z,3.06
2018-01-02T04:18:28.483Z,3.01
2018-01-02T04:19:29.421Z,3.04
2018-01-02T04:21:32.586Z,3.14
2018-01-02T04:22:28.775Z,3.15
2018-01-02T04:23:28.831Z,3.23
2018-01-02T04:24:28.709Z,3.17
2018-01-02T04:25:28.661Z,3.17
2018-01-02T04:26:28.708Z,3.11
2018-01-02T04:27:28.924Z,3.08
2018-01-02T04:28:28.625Z,3.1
2018-01-02T04:29:28.561Z,3.04
2018-01-02T04:30:29.660Z,3.05
2018-01-02T04:31:29.322Z,3.08
2018-01-02T04:32:28.890Z,3.09
2018-01-02T04:33:29.017Z,3.12
2018-01-02T04:34:28.978Z,3.09
2018-01-02T04:35:29.537Z,3.11
2018-01-02T04:36:29.677Z,3.17
2018-01-02T04:37:28.787Z,3.04
2018-01-02T04:38:28.793Z,3.11
2018-01-02T04:39:28.856Z,3.17
2018-01-02T04:40:29.505Z,3.23
2018-01-02T04:41:29.406Z,3.27
2018-01-02T04:42:29.526Z,3.23
2018-01-02T04:43:29.712Z,3.17
2018-01-02T04:44:29.423Z,3.2
2018-01-02T04:45:28.884Z,3.24
2018-01-02T04:46:28.881Z,3.31
2018-01-02T04:47:28.909Z,3.3
2018-01-02T04:48:29.519Z,3.26
2018-01-02T04:49:29.151Z,3.37
2018-01-02T04:50:29.187Z,3.29
2018-01-02T04:51:28.964Z,3.26
2018-01-02T04:52:28.965Z,3.3
2018-01-02T04:53:29.152Z,3.34
2018-01-02T04:54:28.813Z,3.27
2018-01-02T04:55:29.449Z,3.39
2018-01-02T04:56:29.449Z,3.37
2018-01-02T04:57:29.545Z,3.34
2018-01-02T04:58:28.935Z,3.38
2018-01-02T04:59:29.021Z,3.42
2018-01-02T05:00:29.054Z,3.36
2018-01-02T05:01:29.709Z,3.31
2018-01-02T05:02:28.778Z,3.39
2018-01-02T05:03:29.372Z,3.38
2018-01-02T05:04:29.661Z,3.3
2018-01-02T05:05:29.665Z,3.31
2018-01-02T05:06:29.496Z,3.42
2018-01-02T05:07:29.161Z,3.32
2018-01-02T05:08:29.605Z,3.34
2018-01-02T05:09:29.539Z,3.34
2018-01-02T05:10:29.614Z,3.29
2018-01-02T05:11:29.611Z,3.25
2018-01-02T05:12:29.516Z,3.35
2018-01-02T05:13:29.484Z,3.29
2018-01-02T05:14:29.533Z,3.31
2018-01-02T05:15:29.260Z,3.32
2018-01-02T05:16:29.177Z,3.34
2018-01-02T05:17:29.408Z,3.35
2018-01-02T05:18:29.098Z,3.32
2018-01-02T05:19:29.151Z,3.32
2018-01-02T05:20:29.118Z,3.27
2018-01-02T05:21:29.113Z,3.33
2018-01-02T05:22:29.102Z,3.21
2018-01-02T05:23:29.095Z,3.35
2018-01-02T05:24:29.120Z,3.31
2018-01-02T05:25:29.296Z,3.26
2018-01-02T05:26:29.505Z,3.3
2018-01-02T05:27:29.188Z,3.26
2018-01-02T05:28:29.727Z,3.2
2018-01-02T05:29:29.691Z,3.24
2018-01-02T05:30:29.130Z,3.26
2018-01-02T05:31:29.103Z,3.26
2018-01-02T05:32:29.177Z,3.31
2018-01-02T05:33:29.456Z,3.29
2018-01-02T05:34:29.425Z,3.25
2018-01-02T05:35:29.269Z,3.25
2018-01-02T05:36:29.297Z,3.28
2018-01-02T05:37:29.141Z,3.32
2018-01-02T05:38:29.636Z,3.28
2018-01-02T05:39:29.632Z,3.24
2018-01-02T05:40:28.993Z,3.28
2018-01-02T05:41:28.897Z,3.25
2018-01-02T05:42:28.999Z,3.27
2018-01-02T05:43:29.150Z,3.27
2018-01-02T05:44:29.079Z,3.17
2018-01-02T05:45:29.681Z,3.2
2018-01-02T05:46:29.148Z,3.2
2018-01-02T05:47:28.660Z,3.19
2018-01-02T05:48:29.500Z,3.22
2018-01-02T05:49:29.478Z,3.19
2018-01-02T05:50:29.522Z,3.17
2018-01-02T05:51:28.823Z,3.15
2018-01-02T05:52:28.982Z,3.14
2018-01-02T05:53:29.871Z,3.09
2018-01-02T05:54:31.332Z,3.17
2018-01-02T05:55:29.623Z,3.07
2018-01-02T05:56:29.691Z,3.09
2018-01-02T05:57:29.125Z,3.13
2018-01-02T05:58:29.154Z,3.08
2018-01-02T05:59:28.311Z,3.08
2018-01-02T06:00:29.153Z,3
2018-01-02T06:01:28.347Z,3.01
2018-01-02T06:02:29.235Z,2.98
2018-01-02T06:03:29.209Z,3.02
2018-01-02T06:04:28.909Z,3.06
2018-01-02T06:05:29.076Z,3.07
2018-01-02T06:06:28.707Z,3.04
2018-01-02T06:07:28.731Z,3.07
2018-01-02T06:08:29.008Z,3.08
2018-01-02T06:09:28.922Z,3.08
2018-01-02T06:10:28.819Z,3
2018-01-02T06:11:29.250Z,3.12
2018-01-02T06:12:28.367Z,3.09
2018-01-02T06:13:29.319Z,3.14
2018-01-02T06:14:29.398Z,3.08
2018-01-02T06:15:28.686Z,3.11
2018-01-02T06:16:29.162Z,3.12
2018-01-02T06:17:28.808Z,3.11
2018-01-02T06:18:28.566Z,3.14
2018-01-02T06:19:28.608Z,3.11
2018-01-02T06:20:28.843Z,3.11
2018-01-02T06:21:28.861Z,3.08
2018-01-02T06:22:28.655Z,3.07
2018-01-02T06:23:28.698Z,3.07
2018-01-02T06:24:28.673Z,3.09
2018-01-02T06:25:28.620Z,3.13
2018-01-02T06:26:28.569Z,3.05
2018-01-02T06:27:28.516Z,3.05
2018-01-02T06:28:29.245Z,3.04
2018-01-02T06:29:28.885Z,3.06
2018-01-02T06:30:29.844Z,3.05
2018-01-02T06:31:29.240Z,3.09
2018-01-02T06:32:29.795Z,3.04
2018-01-02T06:33:29.960Z,3.03
2018-01-02T06:34:29.290Z,3.03
2018-01-02T06:35:29.414Z,3.05
2018-01-02T06:36:29.776Z,3.04
2018-01-02T06:37:29.865Z,3.02
2018-01-02T06:38:29.198Z,3.01
2018-01-02T06:39:29.819Z,3.01
2018-01-02T06:40:31.315Z,3.01
2018-01-02T06:41:29.613Z,2.96
2018-01-02T06:42:29.212Z,2.94
2018-01-02T06:43:29.091Z,2.91
2018-01-02T06:44:29.021Z,2.92
2018-01-02T06:45:29.664Z,2.89
2018-01-02T06:46:29.313Z,2.9
2018-01-02T06:47:29.041Z,2.92
2018-01-02T06:48:29.114Z,2.91
2018-01-02T06:49:29.670Z,2.92
2018-01-02T06:50:29.053Z,2.92
2018-01-02T06:51:29.648Z,2.97
2018-01-02T06:52:29.475Z,2.93
2018-01-02T06:53:29.655Z,2.93
2018-01-02T06:54:29.780Z,2.95
2018-01-02T06:55:30.023Z,2.92
2018-01-02T06:56:29.219Z,2.96
2018-01-02T06:57:29.888Z,2.94
2018-01-02T06:58:29.162Z,2.99
2018-01-02T06:59:29.195Z,2.93
2018-01-02T07:00:28.238Z,3
2018-01-02T07:01:29.170Z,2.94
2018-01-02T07:02:28.387Z,2.98
2018-01-02T07:03:28.470Z,3.03
2018-01-02T07:04:28.512Z,2.98
2018-01-02T07:05:28.848Z,2.98
2018-01-02T07:06:28.555Z,3
2018-01-02T07:07:28.610Z,3.03
2018-01-02T07:08:28.477Z,3.01
2018-01-02T07:09:28.656Z,3.04
2018-01-02T07:10:28.717Z,2.98
2018-01-02T07:11:28.519Z,3.03
2018-01-02T07:12:28.689Z,3.02
2018-01-02T07:13:28.719Z,3.03
2018-01-02T07:14:28.661Z,3.01
2018-01-02T07:15:29.060Z,3.07
2018-01-02T07:16:28.144Z,3.05
2018-01-02T07:17:28.906Z,3.04
2018-01-02T07:18:29.322Z,3.01
2018-01-02T07:19:28.795Z,3.02
2018-01-02T07:20:28.612Z,3.03
2018-01-02T07:21:28.861Z,2.99
2018-01-02T07:22:28.965Z,3.01
2018-01-02T07:23:28.651Z,3.01
2018-01-02T07:24:28.380Z,3
2018-01-02T07:25:28.591Z,3.02
2018-01-02T07:26:28.653Z,3.01
2018-01-02T07:27:28.262Z,3.03
2018-01-02T07:28:29.234Z,3.01
2018-01-02T07:29:29.235Z,3.01
2018-01-02T07:30:28.858Z,3.01
2018-01-02T07:31:29.491Z,3.01
2018-01-02T07:32:29.250Z,3
2018-01-02T07:33:29.159Z,3.01
2018-01-02T07:34:29.286Z,3
2018-01-02T07:35:29.404Z,3.03
2018-01-02T07:36:29.265Z,3.02
2018-01-02T07:37:29.358Z,3
2018-01-02T07:38:29.443Z,3
2018-01-02T07:39:29.418Z,2.98
2018-01-02T07:40:29.235Z,2.98
2018-01-02T07:41:28.962Z,2.98
2018-01-02T07:42:29.163Z,2.94
2018-01-02T07:43:29.224Z,2.96
2018-01-02T07:44:29.807Z,2.97
2018-01-02T07:45:29.174Z,2.96
2018-01-02T07:46:29.354Z,2.93
2018-01-02T07:47:29.089Z,2.93
2018-01-02T07:48:29.646Z,2.92
2018-01-02T07:49:28.873Z,2.95
2018-01-02T07:50:29.015Z,2.93
2018-01-02T07:51:29.169Z,2.92
2018-01-02T07:52:29.292Z,2.91
2018-01-02T07:53:29.666Z,2.93
2018-01-02T07:54:29.396Z,2.94
2018-01-02T07:55:29.638Z,2.93
2018-01-02T07:56:29.835Z,2.94
2018-01-02T07:57:29.492Z,2.87
2018-01-02T07:58:28.888Z,2.87
2018-01-02T07:59:28.899Z,2.85
2018-01-02T08:00:29.130Z,2.85
2018-01-02T08:01:29.749Z,2.85
2018-01-02T08:02:29.926Z,2.86
2018-01-02T08:03:29.726Z,2.86
2018-01-02T08:04:29.846Z,2.82
2018-01-02T08:05:29.467Z,2.82
2018-01-02T08:06:29.102Z,2.81
2018-01-02T08:07:30.050Z,2.86
2018-01-02T08:08:29.178Z,2.84
2018-01-02T08:09:30.076Z,2.86
2018-01-02T08:10:29.604Z,2.88
2018-01-02T08:11:29.466Z,2.84
2018-01-02T08:12:29.209Z,2.86
2018-01-02T08:13:29.280Z,2.83
2018-01-02T08:14:29.516Z,2.81
2018-01-02T08:15:29.300Z,2.79
2018-01-02T08:16:29.932Z,2.83
2018-01-02T08:17:31.340Z,2.84
2018-01-02T08:18:29.366Z,2.8
2018-01-02T08:19:29.275Z,2.81
2018-01-02T08:20:29.355Z,2.77
2018-01-02T08:21:29.313Z,2.79
2018-01-02T08:22:29.347Z,2.8
2018-01-02T08:23:29.427Z,2.8
2018-01-02T08:24:30.052Z,2.82
2018-01-02T08:25:29.227Z,2.75
2018-01-02T08:26:30.051Z,2.8
2018-01-02T08:27:29.324Z,2.8
2018-01-02T08:28:29.854Z,2.81
2018-01-02T08:29:30.028Z,2.81
2018-01-02T08:30:30.002Z,2.84
2018-01-02T08:31:29.133Z,2.81
2018-01-02T08:32:29.133Z,2.83
2018-01-02T08:33:29.160Z,2.81
2018-01-02T08:34:29.602Z,2.83
2018-01-02T08:35:29.478Z,2.8
2018-01-02T08:36:29.562Z,2.8
2018-01-02T08:37:29.707Z,2.76
2018-01-02T08:38:29.672Z,2.81
2018-01-02T08:39:29.794Z,2.78
2018-01-02T08:40:29.692Z,2.8
2018-01-02T08:41:29.830Z,2.79
2018-01-02T08:42:29.380Z,2.79
2018-01-02T08:43:29.561Z,2.8
2018-01-02T08:44:29.481Z,2.78
2018-01-02T08:45:29.884Z,2.73
2018-01-02T08:46:29.845Z,2.76
2018-01-02T08:47:29.066Z,2.77
2018-01-02T08:48:29.185Z,2.75
2018-01-02T08:49:29.641Z,2.73
2018-01-02T08:50:29.188Z,2.75
2018-01-02T08:51:30.016Z,2.76
2018-01-02T08:52:29.707Z,2.79
2018-01-02T08:53:29.852Z,2.78
2018-01-02T08:54:30.054Z,2.78
2018-01-02T08:55:29.566Z,2.79
2018-01-02T08:56:29.573Z,2.78
2018-01-02T08:57:29.597Z,2.78
2018-01-02T08:58:29.248Z,2.79
2018-01-02T08:59:29.227Z,2.76
2018-01-02T09:00:29.130Z,2.77
2018-01-02T09:01:28.414Z,2.79
2018-01-02T09:02:28.480Z,2.79
2018-01-02T09:03:28.520Z,2.77
2018-01-02T09:04:28.434Z,2.77
2018-01-02T09:05:28.942Z,2.78
2018-01-02T09:06:28.824Z,2.77
2018-01-02T09:07:28.764Z,2.76
2018-01-02T09:08:28.874Z,2.75
2018-01-02T09:09:29.167Z,2.78
2018-01-02T09:10:29.192Z,2.78
2018-01-02T09:11:28.787Z,2.77
2018-01-02T09:12:28.566Z,2.76
2018-01-02T09:13:28.490Z,2.8
2018-01-02T09:14:29.034Z,2.77
2018-01-02T09:15:29.053Z,2.77
2018-01-02T09:16:28.950Z,2.8
2018-01-02T09:17:28.994Z,2.77
2018-01-02T09:18:29.410Z,2.79
2018-01-02T09:19:28.606Z,2.76
2018-01-02T09:20:28.886Z,2.78
2018-01-02T09:21:29.116Z,2.79
2018-01-02T09:22:28.814Z,2.76
2018-01-02T09:23:28.577Z,2.8
2018-01-02T09:24:28.512Z,2.81
2018-01-02T09:25:28.428Z,2.83
2018-01-02T09:26:28.420Z,2.82
2018-01-02T09:27:29.284Z,2.83
2018-01-02T09:28:28.450Z,2.86
2018-01-02T09:29:28.450Z,2.87
2018-01-02T09:30:28.572Z,2.88
2018-01-02T09:31:28.780Z,2.89
2018-01-02T09:32:28.582Z,2.89
2018-01-02T09:33:29.363Z,2.89
2018-01-02T09:34:29.097Z,2.92
2018-01-02T09:35:28.810Z,2.92
2018-01-02T09:36:28.869Z,2.96
2018-01-02T09:37:29.058Z,2.96
2018-01-02T09:38:29.420Z,2.92
2018-01-02T09:39:29.172Z,2.94
2018-01-02T09:40:28.883Z,2.95
2018-01-02T09:41:29.561Z,2.95
2018-01-02T09:42:29.283Z,2.97
2018-01-02T09:43:29.616Z,2.97
2018-01-02T09:44:28.861Z,3.01
2018-01-02T09:45:28.814Z,2.99
2018-01-02T09:46:28.900Z,2.98
2018-01-02T09:47:29.074Z,2.98
2018-01-02T09:48:29.319Z,2.96
2018-01-02T09:49:29.339Z,2.97
2018-01-02T09:50:29.190Z,2.93
2018-01-02T09:51:28.890Z,2.93
2018-01-02T09:52:29.151Z,2.92
2018-01-02T09:53:29.491Z,2.91
2018-01-02T09:54:28.710Z,2.92
2018-01-02T09:55:29.642Z,2.9
2018-01-02T09:56:28.905Z,2.92
2018-01-02T09:57:28.940Z,2.9
2018-01-02T09:58:29.127Z,2.78
2018-01-02T09:59:29.054Z,2.75
2018-01-02T10:00:28.840Z,2.75
2018-01-02T10:01:29.527Z,2.81
2018-01-02T10:02:28.479Z,2.77
2018-01-02T10:03:29.546Z,2.82
2018-01-02T10:04:29.911Z,2.74
2018-01-02T10:05:29.320Z,2.79
2018-01-02T10:06:29.583Z,2.78
2018-01-02T10:07:30.002Z,2.77
2018-01-02T10:08:29.112Z,2.75
2018-01-02T10:11:33.763Z,2.79
2018-01-02T10:12:28.913Z,2.82
2018-01-02T10:13:31.416Z,2.84
2018-01-02T10:14:29.440Z,2.83
2018-01-02T10:15:30.947Z,2.85
2018-01-02T10:16:28.987Z,2.87
2018-01-02T10:17:29.082Z,2.88
2018-01-02T10:18:29.198Z,2.91
2018-01-02T10:19:29.462Z,2.94
2018-01-02T10:20:28.801Z,2.95
2018-01-02T10:21:28.911Z,2.98
2018-01-02T10:22:29.532Z,2.99
2018-01-02T10:23:28.656Z,3
2018-01-02T10:24:29.292Z,2.98
2018-01-02T10:25:29.404Z,2.97
2018-01-02T10:26:29.337Z,2.96
2018-01-02T10:27:29.514Z,2.92
2018-01-02T10:28:29.497Z,2.95
2018-01-02T10:29:28.700Z,2.94
2018-01-02T10:30:28.781Z,2.93
2018-01-02T10:31:29.407Z,2.9
2018-01-02T10:32:33.974Z,2.98
2018-01-02T10:33:29.296Z,2.98
2018-01-02T10:34:29.288Z,2.98
2018-01-02T10:35:29.556Z,3.04
2018-01-02T10:36:31.260Z,3.05
2018-01-02T10:37:29.391Z,3.1
2018-01-02T10:38:29.529Z,3.11
2018-01-02T10:39:30.893Z,3.16
2018-01-02T10:40:29.282Z,3.17
2018-01-02T10:41:29.502Z,3.19
2018-01-02T10:42:31.034Z,3.25
2018-01-02T10:43:29.114Z,3.27
2018-01-02T10:44:29.046Z,3.26
2018-01-02T10:45:28.904Z,3.18
2018-01-02T10:46:28.818Z,3.25
2018-01-02T10:47:29.182Z,3.14
2018-01-02T10:48:30.647Z,3.06
2018-01-02T10:49:31.237Z,3.02
2018-01-02T10:50:29.459Z,3.07
2018-01-02T10:51:29.555Z,3.06
2018-01-02T10:52:29.299Z,2.99
2018-01-02T10:53:29.520Z,2.99
2018-01-02T10:54:30.851Z,3.02
2018-01-02T10:55:30.952Z,2.94
2018-01-02T10:56:28.840Z,2.98
2018-01-02T10:57:29.084Z,2.91
2018-01-02T10:58:29.366Z,2.9
2018-01-02T10:59:29.447Z,2.77
2018-01-02T11:00:30.804Z,2.85
2018-01-02T11:01:28.914Z,2.78
2018-01-02T11:02:29.372Z,2.62
2018-01-02T11:03:28.760Z,2.8
2018-01-02T11:04:28.753Z,2.74
2018-01-02T11:05:28.995Z,2.89
2018-01-02T11:06:29.127Z,2.82
2018-01-02T11:07:29.398Z,2.82
2018-01-02T11:08:31.259Z,2.83
2018-01-02T11:09:29.433Z,2.88
2018-01-02T11:10:29.154Z,2.89
2018-01-02T11:11:29.321Z,2.91
2018-01-02T11:12:28.630Z,2.88
2018-01-02T11:13:28.658Z,2.95
2018-01-02T11:14:28.922Z,2.99
2018-01-02T11:15:28.999Z,2.96
2018-01-02T11:16:29.385Z,2.79
2018-01-02T11:17:28.409Z,2.91
2018-01-02T11:18:28.560Z,2.78
2018-01-02T11:19:28.762Z,2.73
2018-01-02T11:20:28.915Z,2.8
2018-01-02T11:21:29.239Z,2.86
2018-01-02T11:22:29.016Z,2.84
2018-01-02T11:23:29.033Z,2.88
2018-01-02T11:24:29.176Z,2.92
2018-01-02T11:25:29.276Z,2.99
2018-01-02T11:26:29.365Z,2.99
2018-01-02T11:27:29.147Z,2.84
2018-01-02T11:28:29.449Z,2.81
2018-01-02T11:29:29.239Z,2.88
2018-01-02T11:30:30.639Z,2.82
2018-01-02T11:31:28.985Z,2.9
2018-01-02T11:32:29.334Z,2.93
2018-01-02T11:33:28.622Z,2.91
2018-01-02T11:34:28.929Z,2.94
2018-01-02T11:35:28.797Z,2.82
2018-01-02T11:36:28.910Z,2.9
2018-01-02T11:37:29.187Z,2.8
2018-01-02T11:38:28.900Z,2.78
2018-01-02T11:39:29.066Z,2.91
2018-01-02T11:40:29.194Z,2.7
2018-01-02T11:41:29.407Z,2.85
2018-01-02T11:42:29.584Z,2.84
2018-01-02T11:43:28.709Z,2.74
2018-01-02T11:44:28.647Z,2.59
2018-01-02T11:45:28.905Z,2.8
2018-01-02T11:46:28.956Z,2.76
2018-01-02T11:47:29.151Z,2.7
2018-01-02T11:48:29.288Z,2.71
2018-01-02T11:49:28.596Z,2.85
2018-01-02T11:50:28.643Z,2.85
2018-01-02T11:51:29.431Z,2.82
2018-01-02T11:52:28.819Z,2.6
2018-01-02T11:53:28.982Z,2.67
2018-01-02T11:54:29.059Z,2.67
2018-01-02T11:55:29.198Z,2.71
2018-01-02T11:56:28.644Z,2.65
2018-01-02T11:57:29.565Z,2.81
2018-01-02T11:58:28.595Z,2.83
2018-01-02T11:59:29.386Z,2.7
2018-01-02T12:00:28.914Z,2.75
2018-01-02T12:01:29.059Z,2.73
2018-01-02T12:02:29.337Z,2.77
2018-01-02T12:03:31.135Z,2.8
2018-01-02T12:04:29.403Z,2.76
2018-01-02T12:05:29.587Z,2.8
2018-01-02T12:06:28.846Z,2.75
2018-01-02T12:07:29.054Z,2.82
2018-01-02T12:08:29.289Z,2.79
2018-01-02T12:09:28.855Z,2.71
2018-01-02T12:10:29.366Z,2.88
2018-01-02T12:11:29.435Z,2.91
2018-01-02T12:12:29.034Z,2.68
2018-01-02T12:13:29.388Z,2.69
2018-01-02T12:14:28.796Z,2.76
2018-01-02T12:15:28.811Z,2.83
2018-01-02T12:16:29.061Z,2.85
2018-01-02T12:17:28.994Z,2.85
2018-01-02T12:18:29.385Z,2.8
2018-01-02T12:19:29.569Z,2.7
2018-01-02T12:20:29.383Z,2.78
2018-01-02T12:21:30.654Z,2.73
2018-01-02T12:22:28.585Z,2.79
2018-01-02T12:23:29.478Z,2.83
2018-01-02T12:24:29.441Z,2.84
2018-01-02T12:25:29.452Z,2.85
2018-01-02T12:26:29.520Z,2.85
2018-01-02T12:27:28.819Z,2.91
2018-01-02T12:28:28.996Z,2.97
2018-01-02T12:29:29.230Z,2.97
2018-01-02T12:30:29.217Z,2.94
2018-01-02T12:31:30.553Z,2.96
2018-01-02T12:32:29.584Z,2.99
2018-01-02T12:33:28.942Z,3.11
2018-01-02T12:34:29.120Z,3.07
2018-01-02T12:35:29.220Z,3.15
2018-01-02T12:36:29.090Z,3.12
2018-01-02T12:37:29.289Z,3.17
2018-01-02T12:38:29.150Z,3.18
2018-01-02T12:39:31.440Z,3.17
2018-01-02T12:40:29.506Z,3.15
2018-01-02T12:41:30.198Z,3.18
2018-01-02T12:42:30.493Z,3.2
2018-01-02T12:43:30.719Z,3.22
2018-01-02T12:44:31.205Z,3.31
2018-01-02T12:45:30.882Z,3.31
2018-01-02T12:46:29.358Z,3.44
2018-01-02T12:47:31.123Z,3.37
2018-01-02T12:48:29.181Z,3.4
2018-01-02T12:49:31.149Z,3.69
2018-01-02T12:50:29.381Z,3.52
2018-01-02T12:51:30.806Z,3.58
2018-01-02T12:52:31.048Z,3.55
2018-01-02T12:53:29.549Z,3.68
2018-01-02T12:54:31.034Z,3.57
2018-01-02T12:55:29.401Z,3.56
2018-01-02T12:57:30.956Z,3.65
2018-01-02T12:58:30.754Z,3.88
2018-01-02T12:59:30.841Z,3.76
2018-01-02T13:00:30.910Z,3.62
2018-01-02T13:01:30.895Z,3.62
2018-01-02T13:02:30.974Z,3.59
2018-01-02T13:03:31.486Z,3.57
2018-01-02T13:04:31.045Z,3.63
2018-01-02T13:05:29.178Z,3.61
2018-01-02T13:06:29.465Z,3.61
2018-01-02T13:07:29.407Z,3.59
2018-01-02T13:08:30.977Z,3.59
2018-01-02T13:09:28.957Z,3.59
2018-01-02T13:10:29.333Z,3.68
2018-01-02T13:11:30.659Z,3.64
2018-01-02T13:12:31.083Z,3.58
2018-01-02T13:13:29.385Z,3.56
2018-01-02T13:14:30.628Z,3.55
2018-01-02T13:15:31.234Z,3.56
2018-01-02T13:16:29.241Z,3.55
2018-01-02T13:17:29.241Z,3.56
2018-01-02T13:18:29.456Z,3.54
2018-01-02T13:19:30.796Z,3.54
2018-01-02T13:20:30.867Z,3.53
2018-01-02T13:21:29.467Z,3.52
2018-01-02T13:22:30.709Z,3.57
2018-01-02T13:23:30.857Z,3.57
2018-01-02T13:24:31.202Z,3.54
2018-01-02T13:25:29.229Z,3.49
2018-01-02T13:26:29.293Z,3.47
2018-01-02T13:27:29.364Z,3.48